createdAt,value
2022-12-19T00:02:44.874Z,8.93
2022-12-19T00:05:50.494Z,8.63
2022-12-19T00:08:56.790Z,8.63
2022-12-19T00:11:59.603Z,8.63
2022-12-19T00:15:03.602Z,8.93
2022-12-19T00:18:07.809Z,8.15
2022-12-19T00:21:14.045Z,7.93
2022-12-19T00:24:20.693Z,7.70
2022-12-19T00:27:24.226Z,7.53
2022-12-19T00:30:28.377Z,8.40
2022-12-19T00:36:54.618Z,8.55
2022-12-19T00:39:58.618Z,8.48
2022-12-19T00:43:02.598Z,8.03
2022-12-19T00:46:07.639Z,9.13
2022-12-19T00:49:11.936Z,8.90
2022-12-19T00:52:16.059Z,8.15
2022-12-19T00:55:20.191Z,7.80
2022-12-19T00:58:23.220Z,6.90
2022-12-19T01:01:29.383Z,8.68
2022-12-19T01:04:38.263Z,8.98
2022-12-19T01:07:45.358Z,8.25
2022-12-19T01:10:49.434Z,8.05
2022-12-19T01:13:52.402Z,9.33
2022-12-19T01:16:55.184Z,8.35
2022-12-19T01:19:59.154Z,8.50
2022-12-19T01:23:03.322Z,7.22
2022-12-19T01:26:07.650Z,8.77
2022-12-19T01:29:10.643Z,8.23
2022-12-19T01:32:14.730Z,7.35
2022-12-19T01:35:22.031Z,8.43
2022-12-19T01:38:27.481Z,7.97
2022-12-19T01:41:31.387Z,7.78
2022-12-19T01:44:36.524Z,8.10
2022-12-19T01:47:46.539Z,8.07
2022-12-19T01:54:26.478Z,7.15
2022-12-19T02:00:53.533Z,7.07
2022-12-19T02:03:58.325Z,7.15
2022-12-19T02:07:10.885Z,7.63
2022-12-19T02:10:20.801Z,7.30
2022-12-19T02:13:26.264Z,7.80
2022-12-19T02:16:48.899Z,7.80
2022-12-19T02:20:20.860Z,6.75
2022-12-19T02:23:55.690Z,7.88
2022-12-19T02:27:13.482Z,8.15
2022-12-19T02:30:18.699Z,7.05
2022-12-19T02:33:43.017Z,7.80
2022-12-19T02:36:54.069Z,7.63
2022-12-19T02:40:03.546Z,7.78
2022-12-19T02:43:09.422Z,6.80
2022-12-19T02:46:13.078Z,8.77
2022-12-19T02:49:21.913Z,7.50
2022-12-19T02:52:49.273Z,7.65
2022-12-19T02:56:10.435Z,8.07
2022-12-19T02:59:36.580Z,8.45
2022-12-19T03:03:00.666Z,7.82
2022-12-19T03:06:16.574Z,8.37
2022-12-19T03:09:28.721Z,7.72
2022-12-19T03:12:35.435Z,9.13
2022-12-19T03:15:40.460Z,8.00
2022-12-19T03:18:45.390Z,7.57
2022-12-19T03:21:52.799Z,8.13
2022-12-19T03:24:56.804Z,7.75
2022-12-19T03:28:04.801Z,8.23
2022-12-19T03:31:11.585Z,8.80
2022-12-19T03:34:20.924Z,8.02
2022-12-19T03:37:29.354Z,8.07
2022-12-19T03:40:37.023Z,8.60
2022-12-19T03:43:40.162Z,8.40
2022-12-19T03:46:50.762Z,8.88
2022-12-19T03:49:53.826Z,9.77
2022-12-19T03:56:36.443Z,9.27
2022-12-19T03:59:44.064Z,9.57
2022-12-19T04:02:52.072Z,8.27
2022-12-19T04:05:56.129Z,9.32
2022-12-19T04:09:03.422Z,8.50
2022-12-19T04:12:09.736Z,9.23
2022-12-19T04:15:14.272Z,9.30
2022-12-19T04:18:21.099Z,9.20
2022-12-19T04:21:29.146Z,9.23
2022-12-19T04:24:38.486Z,9.17
2022-12-19T04:27:46.238Z,9.43
2022-12-19T04:30:52.017Z,9.20
2022-12-19T04:33:56.136Z,8.27
2022-12-19T04:36:59.134Z,9.23
2022-12-19T04:40:04.570Z,9.67
2022-12-19T04:43:08.391Z,9.38
2022-12-19T04:46:12.476Z,9.50
2022-12-19T04:49:16.889Z,8.43
2022-12-19T04:52:19.837Z,10.73
2022-12-19T04:55:25.189Z,9.53
2022-12-19T04:58:28.396Z,10.18
2022-12-19T05:01:32.520Z,9.65
2022-12-19T05:04:36.705Z,9.27
2022-12-19T05:07:40.532Z,9.57
2022-12-19T05:10:45.896Z,9.43
2022-12-19T05:13:50.146Z,10.27
2022-12-19T05:17:01.114Z,11.00
2022-12-19T05:20:06.988Z,10.82
2022-12-19T05:23:16.181Z,10.27
2022-12-19T05:26:22.455Z,9.77
2022-12-19T05:29:25.325Z,8.98
2022-12-19T05:32:33.418Z,10.00
2022-12-19T05:35:37.925Z,9.35
2022-12-19T05:38:41.012Z,10.17
2022-12-19T05:41:48.999Z,9.90
2022-12-19T05:44:51.961Z,9.45
2022-12-19T05:48:01.075Z,10.25
2022-12-19T05:51:05.923Z,10.10
2022-12-19T05:54:08.697Z,10.63
2022-12-19T05:57:14.157Z,10.57
2022-12-19T06:00:17.401Z,9.70
2022-12-19T06:03:21.529Z,8.80
2022-12-19T06:06:27.298Z,9.60
2022-12-19T06:09:30.240Z,9.63
2022-12-19T06:12:36.281Z,8.63
2022-12-19T06:15:40.241Z,9.40
2022-12-19T06:18:45.579Z,9.85
2022-12-19T06:21:49.876Z,9.40
2022-12-19T06:24:52.863Z,9.40
2022-12-19T06:27:58.211Z,9.37
2022-12-19T06:31:02.755Z,9.15
2022-12-19T06:34:06.705Z,9.35
2022-12-19T06:37:10.697Z,9.27
2022-12-19T06:40:33.861Z,9.17
2022-12-19T06:43:38.516Z,10.13
2022-12-19T06:50:04.558Z,9.60
2022-12-19T06:53:09.025Z,9.25
2022-12-19T06:56:14.535Z,9.50
2022-12-19T06:59:20.052Z,9.53
2022-12-19T07:02:28.393Z,10.07
2022-12-19T07:05:31.495Z,8.63
2022-12-19T07:11:58.511Z,9.00
2022-12-19T07:15:04.090Z,9.13
2022-12-19T07:18:10.357Z,8.45
2022-12-19T07:21:13.157Z,9.20
2022-12-19T07:24:16.382Z,8.98
2022-12-19T07:27:19.861Z,8.70
2022-12-19T07:30:25.232Z,8.77
2022-12-19T07:33:28.729Z,9.70
2022-12-19T07:36:31.562Z,9.13
2022-12-19T07:39:34.386Z,9.15
2022-12-19T07:42:36.968Z,9.02
2022-12-19T07:45:43.092Z,8.68
2022-12-19T07:48:46.157Z,8.90
2022-12-19T07:51:48.958Z,8.50
2022-12-19T07:54:51.709Z,9.40
2022-12-19T07:57:55.426Z,10.23
2022-12-19T08:01:02.026Z,8.60
2022-12-19T08:04:05.682Z,8.33
2022-12-19T08:07:08.776Z,9.50
2022-12-19T08:10:14.510Z,8.18
2022-12-19T08:13:17.229Z,8.57
2022-12-19T08:16:21.454Z,8.60
2022-12-19T08:19:27.454Z,8.17
2022-12-19T08:22:31.247Z,7.93
2022-12-19T08:25:35.333Z,8.35
2022-12-19T08:28:39.362Z,8.70
2022-12-19T08:31:43.651Z,8.90
2022-12-19T08:34:48.018Z,8.10
2022-12-19T08:37:51.487Z,8.03
2022-12-19T08:40:56.311Z,8.57
2022-12-19T08:43:59.274Z,7.88
2022-12-19T08:47:04.489Z,8.98
2022-12-19T08:50:08.081Z,8.33
2022-12-19T08:53:10.815Z,9.37
2022-12-19T08:56:15.552Z,8.40
2022-12-19T08:59:30.368Z,7.70
2022-12-19T09:02:35.840Z,7.90
2022-12-19T09:06:01.367Z,9.13
2022-12-19T09:09:03.966Z,8.87
2022-12-19T09:15:31.528Z,7.53
2022-12-19T09:18:36.039Z,8.95
2022-12-19T09:21:40.220Z,8.80
2022-12-19T09:24:42.919Z,8.73
2022-12-19T09:28:25.245Z,8.82
2022-12-19T09:31:13.747Z,8.40
2022-12-19T09:34:18.275Z,8.35
2022-12-19T09:37:26.671Z,8.67
2022-12-19T09:40:33.930Z,8.20
2022-12-19T09:43:48.706Z,8.52
2022-12-19T09:46:53.728Z,8.68
2022-12-19T09:50:01.004Z,7.90
2022-12-19T09:53:10.224Z,8.20
2022-12-19T09:56:18.181Z,9.10
2022-12-19T09:59:37.115Z,8.48
2022-12-19T10:02:49.605Z,8.10
2022-12-19T10:07:10.622Z,8.20
2022-12-19T10:11:59.370Z,8.73
2022-12-19T10:13:12.771Z,8.83
2022-12-19T10:16:25.767Z,8.00
2022-12-19T10:23:19.912Z,8.40
2022-12-19T10:26:31.470Z,8.63
2022-12-19T10:29:56.884Z,8.80
2022-12-19T10:33:07.145Z,8.75
2022-12-19T10:36:16.775Z,7.82
2022-12-19T10:39:31.509Z,8.05
2022-12-19T10:42:45.326Z,7.20
2022-12-19T10:45:52.550Z,8.00
2022-12-19T10:48:55.459Z,7.93
2022-12-19T10:52:00.755Z,7.50
2022-12-19T10:55:23.628Z,7.60
2022-12-19T10:58:29.191Z,8.17
2022-12-19T11:01:36.800Z,7.93
2022-12-19T11:04:42.271Z,7.35
2022-12-19T11:08:02.205Z,8.23
2022-12-19T11:12:51.140Z,8.10
2022-12-19T11:18:17.135Z,7.57
2022-12-19T11:27:39.971Z,8.07
2022-12-19T11:29:42.762Z,8.32
2022-12-19T11:29:54.953Z,7.45
2022-12-19T11:30:36.287Z,8.10
2022-12-19T11:35:25.256Z,8.20
2022-12-19T11:38:46.949Z,8.65
2022-12-19T11:42:00.108Z,7.82
2022-12-19T11:45:13.576Z,8.05
2022-12-19T11:48:23.869Z,9.03
2022-12-19T11:51:34.467Z,8.30
2022-12-19T11:54:44.780Z,8.50
2022-12-19T11:57:49.809Z,8.23
2022-12-19T12:01:03.036Z,9.10
2022-12-19T12:04:40.793Z,9.33
2022-12-19T12:09:33.319Z,8.30
2022-12-19T12:18:26.342Z,8.00
2022-12-19T12:25:24.875Z,8.90
2022-12-19T12:31:16.752Z,8.93
2022-12-19T12:31:26.378Z,8.60
2022-12-19T12:31:45.495Z,10.02
2022-12-19T12:31:50.993Z,8.80
2022-12-19T12:35:42.375Z,10.43
2022-12-19T12:41:09.256Z,8.97
2022-12-19T12:44:13.456Z,10.23
2022-12-19T12:47:21.880Z,9.95
2022-12-19T12:50:27.888Z,8.73
2022-12-19T12:53:36.293Z,11.00
2022-12-19T12:56:41.870Z,10.33
2022-12-19T12:59:46.964Z,9.63
2022-12-19T13:02:56.479Z,10.02
2022-12-19T13:06:08.354Z,10.88
2022-12-19T13:09:25.690Z,11.55
2022-12-19T13:12:47.917Z,11.30
2022-12-19T13:15:50.951Z,9.27
2022-12-19T13:19:21.069Z,10.82
2022-12-19T13:22:40.688Z,10.70
2022-12-19T13:25:54.965Z,9.45
2022-12-19T13:29:34.301Z,11.20
2022-12-19T13:33:11.518Z,10.50
2022-12-19T13:40:01.046Z,9.82
2022-12-19T13:40:20.976Z,9.35
2022-12-19T13:43:49.454Z,10.32
2022-12-19T13:46:52.965Z,9.20
2022-12-19T13:49:58.499Z,9.80
2022-12-19T13:53:01.463Z,10.23
2022-12-19T13:56:07.697Z,11.07
2022-12-19T13:59:12.091Z,9.65
2022-12-19T14:02:20.481Z,9.53
2022-12-19T14:05:32.257Z,9.67
2022-12-19T14:09:58.665Z,9.32
2022-12-19T14:13:52.961Z,9.32
2022-12-19T14:19:26.035Z,8.80
2022-12-19T14:22:28.815Z,9.40
2022-12-19T14:28:21.682Z,9.80
2022-12-19T14:29:05.602Z,9.32
2022-12-19T14:33:39.211Z,9.07
2022-12-19T14:36:12.225Z,10.20
2022-12-19T14:39:23.498Z,9.70
2022-12-19T14:43:56.711Z,10.15
2022-12-19T14:53:34.138Z,11.20
2022-12-19T14:54:10.511Z,9.70
2022-12-19T14:54:44.283Z,9.57
2022-12-19T14:59:59.775Z,10.57
2022-12-19T15:07:07.693Z,9.27
2022-12-19T15:11:09.297Z,10.00
2022-12-19T15:14:51.619Z,10.10
2022-12-19T15:17:02.256Z,10.15
2022-12-19T15:20:06.840Z,9.82
2022-12-19T15:23:14.118Z,10.43
2022-12-19T15:26:28.371Z,10.27
2022-12-19T15:29:34.201Z,10.17
2022-12-19T15:32:38.119Z,11.00
2022-12-19T15:35:41.795Z,10.75
2022-12-19T15:38:46.692Z,10.55
2022-12-19T15:45:17.902Z,10.13
2022-12-19T15:48:20.882Z,10.25
2022-12-19T15:51:25.093Z,10.82
2022-12-19T15:57:55.667Z,11.33
2022-12-19T16:01:03.683Z,10.83
2022-12-19T16:04:15.012Z,10.02
2022-12-19T16:07:19.554Z,11.15
2022-12-19T16:10:24.112Z,10.73
2022-12-19T16:13:29.978Z,11.83
2022-12-19T16:16:32.836Z,12.13
2022-12-19T16:19:39.145Z,12.57
2022-12-19T16:22:43.803Z,11.63
2022-12-19T16:25:50.600Z,12.10
2022-12-19T16:28:53.693Z,11.47
2022-12-19T16:31:56.598Z,13.00
2022-12-19T16:35:00.571Z,12.00
2022-12-19T16:38:03.286Z,11.93
2022-12-19T16:41:10.412Z,11.95
2022-12-19T16:44:19.467Z,11.53
2022-12-19T16:47:22.539Z,10.83
2022-12-19T16:50:27.124Z,12.63
2022-12-19T16:53:30.395Z,12.15
2022-12-19T16:56:36.658Z,12.43
2022-12-19T16:59:42.287Z,11.97
2022-12-19T17:02:49.618Z,10.90
2022-12-19T17:05:52.799Z,12.98
2022-12-19T17:08:55.518Z,12.43
2022-12-19T17:12:01.760Z,11.70
2022-12-19T17:15:07.889Z,11.33
2022-12-19T17:18:15.229Z,12.33
2022-12-19T17:21:20.151Z,12.48
2022-12-19T17:24:22.883Z,12.05
2022-12-19T17:27:26.980Z,12.15
2022-12-19T17:30:29.771Z,11.70
2022-12-19T17:33:37.930Z,11.87
2022-12-19T17:36:40.730Z,11.35
2022-12-19T17:39:44.935Z,10.88
2022-12-19T17:42:49.639Z,12.80
2022-12-19T17:45:53.715Z,12.47
2022-12-19T17:48:56.567Z,11.63
2022-12-19T17:52:00.894Z,10.70
2022-12-19T17:55:14.466Z,12.30
2022-12-19T17:58:18.677Z,11.80
2022-12-19T18:01:25.154Z,12.20
2022-12-19T18:04:31.016Z,12.30
2022-12-19T18:07:34.328Z,12.25
2022-12-19T18:10:37.270Z,12.00
2022-12-19T18:13:41.506Z,11.23
2022-12-19T18:16:45.250Z,12.85
2022-12-19T18:19:48.028Z,13.18
2022-12-19T18:22:50.755Z,12.30
2022-12-19T18:26:01.191Z,13.37
2022-12-19T18:29:06.118Z,12.37
2022-12-19T18:32:19.267Z,12.38
2022-12-19T18:35:23.962Z,12.13
2022-12-19T18:38:27.275Z,12.57
2022-12-19T18:44:53.447Z,12.57
2022-12-19T18:51:24.219Z,12.13
2022-12-19T18:54:28.634Z,12.80
2022-12-19T18:57:32.576Z,16.90
2022-12-19T19:00:39.727Z,13.13
2022-12-19T19:03:46.149Z,13.50
2022-12-19T19:06:52.177Z,11.73
2022-12-19T19:09:55.651Z,12.68
2022-12-19T19:13:06.620Z,13.27
2022-12-19T19:16:19.642Z,20.50
2022-12-19T19:19:22.602Z,13.20
2022-12-19T19:22:26.878Z,12.38
2022-12-19T19:25:29.796Z,13.10
2022-12-19T19:28:32.544Z,12.73
2022-12-19T19:31:40.685Z,12.70
2022-12-19T19:34:44.448Z,13.32
2022-12-19T19:37:50.194Z,11.82
2022-12-19T19:40:52.929Z,12.77
2022-12-19T19:43:56.968Z,13.60
2022-12-19T19:47:01.126Z,14.93
2022-12-19T19:50:06.055Z,12.07
2022-12-19T19:53:08.843Z,12.05
2022-12-19T19:56:13.263Z,11.88
2022-12-19T19:59:19.632Z,12.03
2022-12-19T20:02:25.709Z,10.83
2022-12-19T20:05:28.701Z,11.10
2022-12-19T20:08:39.226Z,14.25
2022-12-19T20:11:43.267Z,12.93
2022-12-19T20:14:47.281Z,12.27
2022-12-19T20:17:52.837Z,12.13
2022-12-19T20:20:55.618Z,11.45
2022-12-19T20:23:59.653Z,13.20
2022-12-19T20:27:03.227Z,12.02
2022-12-19T20:30:09.075Z,12.60
2022-12-19T20:33:13.447Z,11.43
2022-12-19T20:36:17.665Z,11.77
2022-12-19T20:39:22.277Z,12.02
2022-12-19T20:42:25.784Z,11.77
2022-12-19T20:45:29.733Z,10.77
2022-12-19T20:48:35.263Z,11.57
2022-12-19T20:51:39.407Z,10.55
2022-12-19T20:54:44.270Z,10.13
2022-12-19T20:57:47.283Z,11.27
2022-12-19T21:00:50.081Z,11.63
2022-12-19T21:03:54.490Z,10.93
2022-12-19T21:06:58.858Z,10.32
2022-12-19T21:10:06.293Z,10.70
2022-12-19T21:13:08.988Z,10.82
2022-12-19T21:22:58.897Z,11.32
2022-12-19T21:26:05.547Z,11.30
2022-12-19T21:29:08.278Z,11.80
2022-12-19T21:32:18.669Z,10.83
2022-12-19T21:35:24.202Z,11.27
2022-12-19T21:38:27.192Z,10.80
2022-12-19T21:41:31.213Z,11.57
2022-12-19T21:44:33.933Z,10.73
2022-12-19T21:47:40.608Z,10.37
2022-12-19T21:50:46.209Z,9.73
2022-12-19T21:53:49.413Z,10.98
2022-12-19T21:56:53.434Z,11.43
2022-12-19T21:59:56.189Z,10.18
2022-12-19T22:03:13.895Z,10.23
2022-12-19T22:06:27.615Z,10.80
2022-12-19T22:09:31.021Z,10.38
2022-12-19T22:12:35.428Z,11.00
2022-12-19T22:15:39.580Z,11.48
2022-12-19T22:18:44.423Z,10.70
2022-12-19T22:21:50.579Z,10.70
2022-12-19T22:24:53.525Z,11.25
2022-12-19T22:27:57.483Z,9.77
2022-12-19T22:31:01.825Z,10.48
2022-12-19T22:34:07.083Z,10.93
2022-12-19T22:40:34.334Z,10.82
2022-12-19T22:43:37.659Z,9.55
2022-12-19T22:46:40.756Z,9.00
2022-12-19T22:49:43.478Z,9.17
2022-12-19T22:52:47.875Z,9.70
2022-12-19T22:55:50.641Z,9.25
2022-12-19T22:58:57.092Z,10.18
2022-12-19T23:02:01.530Z,9.15
2022-12-19T23:05:04.713Z,9.60
2022-12-19T23:08:10.610Z,9.33
2022-12-19T23:11:18.237Z,9.70
2022-12-19T23:14:21.725Z,8.35
2022-12-19T23:17:24.691Z,9.20
2022-12-19T23:20:27.490Z,8.40
2022-12-19T23:23:32.834Z,9.10
2022-12-19T23:26:39.720Z,8.80
2022-12-19T23:29:42.747Z,9.05
2022-12-19T23:32:50.886Z,9.43
2022-12-19T23:35:54.000Z,9.67
2022-12-19T23:39:00.250Z,9.63
2022-12-19T23:45:24.416Z,8.35
2022-12-19T23:48:30.982Z,8.95
2022-12-19T23:51:33.809Z,8.83
2022-12-19T23:54:39.496Z,8.23
2022-12-19T23:57:43.642Z,8.82
